createdAt,value
2023-03-04T00:00:07.456Z,706.78
2023-03-04T00:02:34.266Z,705.43
2023-03-04T00:05:00.948Z,710.55
2023-03-04T00:07:27.659Z,707.75
2023-03-04T00:09:54.358Z,705.78
2023-03-04T00:12:21.266Z,707.83
2023-03-04T00:14:47.965Z,703.77
2023-03-04T00:17:14.701Z,700.55
2023-03-04T00:19:41.329Z,701.85
2023-03-04T00:22:07.967Z,700.00
2023-03-04T00:24:35.182Z,704.40
2023-03-04T00:27:01.919Z,702.85
2023-03-04T00:29:28.637Z,702.22
2023-03-04T05:31:58.499Z,669.58
2023-03-04T05:34:25.155Z,668.75
2023-03-04T05:36:51.866Z,665.15
2023-03-04T05:39:18.565Z,666.97
2023-03-04T05:41:45.238Z,662.45
2023-03-04T05:44:11.842Z,667.40
2023-03-04T05:46:38.467Z,665.70
2023-03-04T05:49:05.363Z,670.90
2023-03-04T05:51:32.015Z,669.88
2023-03-04T05:53:58.659Z,669.58
2023-03-04T05:56:25.306Z,665.70
2023-03-04T05:58:51.899Z,665.17
2023-03-04T06:01:18.539Z,667.67
2023-03-04T06:03:45.292Z,663.22
2023-03-04T06:06:12.051Z,661.90
2023-03-04T06:08:38.672Z,668.33
2023-03-04T06:11:05.854Z,667.70
2023-03-04T06:13:33.025Z,664.50
2023-03-04T06:16:00.385Z,670.00
2023-03-04T06:18:28.038Z,666.28
2023-03-04T06:20:59.176Z,667.80
2023-03-04T06:23:26.641Z,668.10
2023-03-04T06:25:58.355Z,667.08
2023-03-04T06:28:25.316Z,664.88
2023-03-04T06:30:53.164Z,665.75
2023-03-04T06:33:20.439Z,671.17
2023-03-04T06:35:47.332Z,674.47
2023-03-04T06:38:14.379Z,674.00
2023-03-04T06:40:40.990Z,671.72
2023-03-04T06:43:07.637Z,663.60
2023-03-04T06:45:34.221Z,664.55
2023-03-04T06:48:00.902Z,664.08
2023-03-04T06:50:27.523Z,666.22
2023-03-04T06:52:57.017Z,666.95
2023-03-04T06:55:24.220Z,666.95
2023-03-04T06:57:51.397Z,667.20
2023-03-04T07:00:19.346Z,662.55
2023-03-04T07:02:46.014Z,668.53
2023-03-04T07:05:12.672Z,669.60
2023-03-04T07:07:39.255Z,667.72
2023-03-04T07:10:06.789Z,669.15
2023-03-04T07:12:33.525Z,673.13
2023-03-04T07:15:00.230Z,674.72
2023-03-04T07:17:26.865Z,669.60
2023-03-04T07:19:53.649Z,678.87
2023-03-04T07:22:20.280Z,680.92
2023-03-04T07:24:46.899Z,684.45
2023-03-04T07:27:13.611Z,684.85
2023-03-04T07:29:40.229Z,686.28
2023-03-04T07:32:10.590Z,682.72
2023-03-04T07:34:37.359Z,686.97
2023-03-04T07:37:04.419Z,694.17
2023-03-04T07:39:31.173Z,692.28
2023-03-04T07:41:57.780Z,693.38
2023-03-04T07:44:24.524Z,687.33
2023-03-04T07:46:51.114Z,688.33
2023-03-04T07:49:17.749Z,695.78
2023-03-04T07:51:44.578Z,727.60
2023-03-04T07:54:11.633Z,738.20
2023-03-04T07:56:38.276Z,762.65
2023-03-04T07:59:04.902Z,811.45
2023-03-04T08:01:34.364Z,838.78
2023-03-04T08:04:01.684Z,858.55
2023-03-04T08:06:29.296Z,877.37
2023-03-04T08:09:06.698Z,902.37
2023-03-04T08:11:34.427Z,924.75
2023-03-04T08:14:01.045Z,937.90
2023-03-04T08:16:28.146Z,959.10
2023-03-04T08:18:57.989Z,957.88
2023-03-04T08:21:26.952Z,964.38
2023-03-04T08:23:54.449Z,958.58
2023-03-04T08:26:30.665Z,963.88
2023-03-04T08:28:57.854Z,971.80
2023-03-04T08:31:24.819Z,978.97
2023-03-04T08:33:52.782Z,987.75
2023-03-04T08:36:19.858Z,981.60
2023-03-04T08:38:46.676Z,988.55
2023-03-04T08:41:13.428Z,1010.43
2023-03-04T08:43:40.325Z,1016.80
2023-03-04T08:46:07.550Z,1022.80
2023-03-04T08:48:34.335Z,1037.63
2023-03-04T08:51:01.074Z,1059.68
2023-03-04T08:53:27.746Z,1066.65
2023-03-04T08:55:54.427Z,1083.90
2023-03-04T08:58:21.053Z,1089.45
2023-03-04T09:00:51.318Z,1099.43
2023-03-04T09:03:19.946Z,1101.90
2023-03-04T09:05:47.938Z,1109.55
2023-03-04T09:08:16.012Z,1132.93
2023-03-04T09:10:43.315Z,1138.75
2023-03-04T09:13:16.126Z,1140.27
2023-03-04T09:15:47.690Z,1152.90
2023-03-04T09:18:15.168Z,1154.90
2023-03-04T09:20:42.060Z,1164.72
2023-03-04T09:23:09.629Z,1164.37
2023-03-04T09:25:37.826Z,1184.43
2023-03-04T09:28:05.074Z,1189.60
2023-03-04T09:30:32.279Z,1194.87
2023-03-04T09:32:58.878Z,1201.18
2023-03-04T09:35:25.806Z,1196.35
2023-03-04T09:37:52.960Z,1204.63
2023-03-04T09:40:28.223Z,1206.70
2023-03-04T09:43:06.013Z,1212.65
2023-03-04T09:45:40.863Z,1219.22
2023-03-04T09:48:11.267Z,1217.30
2023-03-04T09:50:46.816Z,1233.10
2023-03-04T09:53:22.914Z,1233.75
2023-03-04T09:55:52.062Z,1238.18
2023-03-04T09:58:27.593Z,1232.32
2023-03-04T10:01:23.380Z,1233.53
2023-03-04T10:03:59.218Z,1236.55
2023-03-04T10:06:37.107Z,1233.38
2023-03-04T10:09:11.827Z,1234.33
2023-03-04T10:11:55.528Z,1230.03
2023-03-04T10:14:22.188Z,1238.95
2023-03-04T10:16:51.603Z,1241.10
2023-03-04T10:19:25.718Z,1239.73
2023-03-04T10:21:52.649Z,1246.20
2023-03-04T10:24:22.558Z,1241.90
2023-03-04T10:26:54.397Z,1234.43
2023-03-04T10:29:24.359Z,1236.85
2023-03-04T10:31:51.562Z,1239.18
2023-03-04T10:34:18.513Z,1234.97
2023-03-04T10:36:52.319Z,1233.23
2023-03-04T10:39:24.576Z,1226.25
2023-03-04T10:41:58.157Z,1229.90
2023-03-04T10:44:25.511Z,1234.47
2023-03-04T10:46:55.286Z,1233.60
2023-03-04T10:49:24.794Z,1232.15
2023-03-04T10:52:35.372Z,1230.38
2023-03-04T10:55:15.442Z,1218.10
2023-03-04T10:57:44.534Z,1203.97
2023-03-04T11:00:28.492Z,1206.43
2023-03-04T11:03:20.898Z,1203.37
2023-03-04T11:05:47.662Z,1195.10
2023-03-04T11:08:19.710Z,1196.40
2023-03-04T11:10:47.275Z,1206.22
2023-03-04T11:13:18.914Z,1203.18
2023-03-04T11:15:53.511Z,1195.78
2023-03-04T11:18:41.319Z,1191.50
2023-03-04T11:21:12.767Z,1197.18
2023-03-04T11:23:52.157Z,1195.07
2023-03-04T11:26:25.806Z,1193.38
2023-03-04T11:28:54.292Z,1190.20
2023-03-04T11:31:27.274Z,1180.97
2023-03-04T11:34:23.089Z,1188.38
2023-03-04T11:37:05.395Z,1170.90
2023-03-04T11:39:34.830Z,1184.15
2023-03-04T11:42:53.798Z,1190.85
2023-03-04T11:45:33.962Z,1164.07
2023-03-04T11:48:15.016Z,1160.90
2023-03-04T11:51:07.286Z,1150.78
2023-03-04T11:53:37.330Z,1148.13
2023-03-04T11:56:13.114Z,1153.10
2023-03-04T11:59:01.510Z,1140.72
2023-03-04T12:01:31.642Z,1134.00
2023-03-04T12:04:17.801Z,1125.93
2023-03-04T12:07:06.577Z,1127.32
2023-03-04T12:09:45.236Z,1107.47
2023-03-04T12:12:45.907Z,1110.03
2023-03-04T12:15:38.104Z,1097.78
2023-03-04T12:18:32.655Z,1080.20
2023-03-04T12:21:17.086Z,1083.28
2023-03-04T12:23:55.496Z,1082.35
2023-03-04T12:26:30.316Z,1091.32
2023-03-04T12:29:20.232Z,1086.90
2023-03-04T12:31:50.304Z,1095.75
2023-03-04T12:34:27.685Z,1103.93
2023-03-04T12:37:22.167Z,1100.65
2023-03-04T12:39:54.724Z,1099.95
2023-03-04T12:42:43.099Z,1100.97
2023-03-04T12:45:32.829Z,1095.03
2023-03-04T12:48:07.548Z,1095.90
2023-03-04T12:50:53.344Z,1092.80
2023-03-04T12:53:37.840Z,1076.93
2023-03-04T12:56:07.982Z,1065.75
2023-03-04T12:58:36.926Z,1049.25
2023-03-04T13:01:24.783Z,1019.72
2023-03-04T13:03:57.216Z,1017.78
2023-03-04T13:06:30.007Z,1012.95
2023-03-04T13:09:25.473Z,1014.28
2023-03-04T13:12:17.293Z,1008.13
2023-03-04T13:15:05.824Z,1001.92
2023-03-04T13:17:38.621Z,1016.17
2023-03-04T13:20:39.725Z,1018.30
2023-03-04T13:23:09.098Z,1041.00
2023-03-04T13:25:40.380Z,1041.43
2023-03-04T13:28:10.035Z,1048.07
2023-03-04T13:30:38.133Z,1045.93
2023-03-04T13:33:16.488Z,1030.43
2023-03-04T13:35:49.021Z,1027.07
2023-03-04T13:38:31.513Z,1030.15
2023-03-04T13:41:14.024Z,1032.38
2023-03-04T13:43:47.869Z,1031.53
2023-03-04T13:46:20.589Z,1028.20
2023-03-04T13:49:02.298Z,1014.45
2023-03-04T13:51:45.091Z,1019.95
2023-03-04T13:54:27.509Z,1019.45
2023-03-04T13:57:00.333Z,1007.22
2023-03-04T13:59:42.139Z,1005.42
2023-03-04T14:02:22.426Z,998.42
2023-03-04T14:04:54.899Z,993.40
2023-03-04T14:07:24.783Z,1002.65
2023-03-04T14:09:58.024Z,994.50
2023-03-04T14:12:26.342Z,991.90
2023-03-04T14:14:56.121Z,996.17
2023-03-04T14:17:32.501Z,987.33
2023-03-04T14:20:00.554Z,995.23
2023-03-04T14:22:33.960Z,995.55
2023-03-04T14:25:03.469Z,988.53
2023-03-04T14:27:35.227Z,983.00
2023-03-04T14:30:07.938Z,986.20
2023-03-04T14:32:35.036Z,983.60
2023-03-04T14:35:17.869Z,989.05
2023-03-04T14:37:49.980Z,985.30
2023-03-04T14:40:26.981Z,982.67
2023-03-04T14:43:05.462Z,986.17
2023-03-04T14:45:32.138Z,993.50
2023-03-04T14:48:06.685Z,1004.00
2023-03-04T14:50:35.701Z,998.90
2023-03-04T14:53:09.205Z,999.13
2023-03-04T14:55:35.984Z,995.38
2023-03-04T14:58:18.505Z,1011.20
2023-03-04T15:00:45.521Z,998.90
2023-03-04T15:03:22.020Z,995.60
2023-03-04T15:05:49.126Z,987.08
2023-03-04T15:08:20.701Z,984.08
2023-03-04T15:10:56.792Z,975.55
2023-03-04T15:13:44.500Z,972.22
2023-03-04T15:16:13.697Z,969.67
2023-03-04T15:19:05.726Z,958.90
2023-03-04T15:21:36.880Z,957.25
2023-03-04T15:24:06.026Z,958.40
2023-03-04T15:26:34.492Z,952.97
2023-03-04T15:29:03.530Z,961.92
2023-03-04T15:31:30.215Z,962.30
2023-03-04T15:33:56.890Z,966.25
2023-03-04T15:36:23.977Z,957.40
2023-03-04T15:38:52.952Z,960.53
2023-03-04T15:41:24.100Z,959.58
2023-03-04T15:43:51.954Z,946.35
2023-03-04T15:46:18.765Z,956.38
2023-03-04T15:48:45.964Z,958.63
2023-03-04T15:51:19.745Z,947.13
2023-03-04T15:53:49.633Z,945.60
2023-03-04T15:56:25.043Z,951.30
2023-03-04T15:59:02.399Z,922.35
2023-03-04T16:01:30.515Z,917.10
2023-03-04T16:03:57.132Z,914.53
2023-03-04T16:06:27.132Z,900.90
2023-03-04T16:08:53.823Z,899.30
2023-03-04T16:11:23.107Z,902.20
2023-03-04T16:13:50.153Z,894.15
2023-03-04T16:16:17.294Z,887.28
2023-03-04T16:18:44.970Z,885.25
2023-03-04T16:21:18.759Z,882.35
2023-03-04T16:23:48.433Z,876.38
2023-03-04T16:26:20.737Z,877.28
2023-03-04T16:28:47.425Z,883.10
2023-03-04T16:31:15.950Z,878.75
2023-03-04T16:33:42.997Z,892.75
2023-03-04T16:36:24.348Z,890.55
2023-03-04T16:38:52.449Z,881.17
2023-03-04T16:41:23.993Z,874.80
2023-03-04T16:43:50.640Z,888.13
2023-03-04T16:46:17.275Z,881.20
2023-03-04T16:48:43.907Z,883.28
2023-03-04T16:51:19.503Z,887.35
2023-03-04T16:53:52.946Z,886.92
2023-03-04T16:56:20.432Z,885.42
2023-03-04T16:58:47.318Z,881.08
2023-03-04T17:01:19.716Z,885.83
2023-03-04T17:03:46.839Z,880.17
2023-03-04T17:06:14.121Z,886.90
2023-03-04T17:08:41.651Z,885.45
2023-03-04T17:11:12.696Z,873.85
2023-03-04T17:13:39.356Z,873.42
2023-03-04T17:16:06.325Z,868.58
2023-03-04T17:18:33.175Z,867.63
2023-03-04T17:21:08.632Z,862.47
2023-03-04T17:23:35.310Z,854.88
2023-03-04T17:26:02.416Z,855.00
2023-03-04T17:28:29.404Z,867.30
2023-03-04T17:30:56.097Z,850.33
2023-03-04T17:33:23.206Z,849.37
2023-03-04T17:35:50.035Z,851.70
2023-03-04T17:38:17.349Z,840.13
2023-03-04T17:40:44.918Z,847.28
2023-03-04T17:43:11.598Z,830.40
2023-03-04T17:45:39.493Z,816.08
2023-03-04T17:48:06.864Z,815.65
2023-03-04T17:50:34.546Z,814.22
2023-03-04T17:53:01.183Z,805.55
2023-03-04T17:55:27.923Z,798.20
2023-03-04T17:57:57.345Z,795.85
2023-03-04T18:00:24.215Z,793.90
2023-03-04T18:02:50.821Z,787.38
2023-03-04T18:05:17.457Z,789.65
2023-03-04T18:07:44.100Z,786.35
2023-03-04T18:10:11.222Z,778.80
2023-03-04T18:12:37.869Z,770.67
2023-03-04T18:15:04.936Z,774.27
2023-03-04T18:17:31.619Z,780.55
2023-03-04T18:19:58.344Z,764.45
2023-03-04T18:22:24.992Z,763.50
2023-03-04T18:24:51.724Z,763.65
2023-03-04T18:27:18.486Z,764.38
2023-03-04T18:29:45.095Z,754.73
2023-03-04T18:32:11.885Z,750.88
2023-03-04T18:34:38.610Z,744.75
2023-03-04T18:37:05.256Z,744.03
2023-03-04T18:39:31.883Z,752.57
2023-03-04T18:41:59.129Z,750.50
2023-03-04T18:44:25.784Z,747.28
2023-03-04T18:46:56.155Z,744.85
2023-03-04T18:49:23.639Z,744.60
2023-03-04T18:51:50.273Z,744.25
2023-03-04T18:54:17.012Z,744.05
2023-03-04T18:56:48.402Z,737.42
2023-03-04T18:59:26.295Z,734.40
2023-03-04T19:01:54.319Z,737.53
2023-03-04T19:04:23.038Z,731.92
2023-03-04T19:06:49.914Z,738.97
2023-03-04T19:09:16.624Z,731.17
2023-03-04T19:11:43.295Z,733.50
2023-03-04T19:14:11.628Z,737.05
2023-03-04T19:16:40.551Z,729.70
2023-03-04T19:19:07.636Z,728.95
2023-03-04T19:21:38.176Z,731.53
2023-03-04T19:24:05.476Z,726.03
2023-03-04T19:26:32.425Z,721.88
2023-03-04T19:28:59.057Z,724.13
2023-03-04T19:31:25.800Z,727.72
2023-03-04T19:33:52.553Z,721.20
2023-03-04T19:36:19.186Z,722.30
2023-03-04T19:38:45.933Z,709.83
2023-03-04T19:41:15.031Z,717.22
2023-03-04T19:43:42.029Z,711.50
2023-03-04T19:46:10.020Z,705.30
2023-03-04T19:48:37.124Z,702.00
2023-03-04T19:51:05.043Z,703.92
2023-03-04T19:53:34.581Z,704.45
2023-03-04T19:56:01.534Z,707.60
2023-03-04T19:58:28.244Z,702.58
2023-03-04T20:00:56.086Z,705.03
2023-03-04T20:03:23.964Z,707.58
2023-03-04T20:05:50.685Z,697.35
2023-03-04T20:08:17.319Z,697.15
2023-03-04T20:10:44.029Z,696.45
2023-03-04T20:13:10.716Z,695.75
2023-03-04T20:15:41.585Z,700.05
2023-03-04T20:18:08.202Z,699.97
2023-03-04T20:20:38.322Z,695.97
2023-03-04T20:23:05.816Z,699.00
2023-03-04T20:25:32.726Z,696.95
2023-03-04T20:27:59.503Z,698.92
2023-03-04T20:30:26.148Z,698.33
2023-03-04T20:32:52.771Z,703.53
2023-03-04T20:35:19.970Z,698.67
2023-03-04T20:37:46.586Z,695.47
2023-03-04T20:40:13.699Z,695.25
2023-03-04T20:42:40.414Z,696.85
2023-03-04T20:45:07.836Z,697.70
2023-03-04T20:47:34.445Z,700.17
2023-03-04T20:50:01.239Z,695.45
2023-03-04T20:52:27.916Z,694.13
2023-03-04T20:54:54.511Z,693.83
2023-03-04T20:57:21.429Z,698.00
2023-03-04T20:59:48.583Z,691.10
2023-03-04T21:02:17.173Z,685.58
2023-03-04T21:04:43.979Z,690.80
2023-03-04T21:07:11.602Z,692.42
2023-03-04T21:09:38.274Z,694.70
2023-03-04T21:12:05.219Z,697.08
2023-03-04T21:14:32.808Z,695.75
2023-03-04T21:17:02.229Z,694.40
2023-03-04T21:19:31.743Z,688.63
2023-03-04T21:22:00.050Z,691.67
2023-03-04T21:24:30.466Z,694.27
2023-03-04T21:26:57.992Z,691.78
2023-03-04T21:29:26.910Z,694.03
2023-03-04T21:31:56.314Z,687.75
2023-03-04T21:34:28.413Z,687.30
2023-03-04T21:36:55.074Z,684.20
2023-03-04T21:39:24.296Z,683.40
2023-03-04T21:41:51.843Z,689.90
2023-03-04T21:44:28.437Z,687.72
2023-03-04T21:46:56.948Z,689.60
2023-03-04T21:49:23.744Z,689.30
2023-03-04T21:51:50.441Z,690.55
2023-03-04T21:54:17.104Z,688.83
2023-03-04T21:56:43.842Z,686.37
2023-03-04T21:59:13.528Z,681.20
2023-03-04T22:01:41.293Z,678.00
2023-03-04T22:04:08.356Z,682.53
2023-03-04T22:06:34.997Z,680.47
2023-03-04T22:09:03.545Z,679.58
2023-03-04T22:11:30.958Z,681.45
2023-03-04T22:14:00.914Z,689.78
2023-03-04T22:16:28.729Z,682.58
2023-03-04T22:18:55.642Z,686.75
2023-03-04T22:21:22.380Z,686.03
2023-03-04T22:23:49.052Z,685.47
2023-03-04T22:26:18.405Z,694.75
2023-03-04T22:28:45.913Z,688.25
2023-03-04T22:31:21.586Z,694.75
2023-03-04T22:33:48.224Z,694.55
2023-03-04T22:36:14.929Z,692.53
2023-03-04T22:38:42.134Z,691.72
2023-03-04T22:41:17.010Z,691.30
2023-03-04T22:43:44.267Z,690.03
2023-03-04T22:46:16.907Z,687.10
2023-03-04T22:48:43.667Z,690.75
2023-03-04T22:51:10.610Z,688.92
2023-03-04T22:53:37.851Z,687.03
2023-03-04T22:56:05.922Z,689.28
2023-03-04T22:58:32.863Z,686.35
2023-03-04T23:00:59.876Z,687.47
2023-03-04T23:03:26.602Z,689.65
2023-03-04T23:06:08.645Z,688.30
2023-03-04T23:08:37.172Z,690.25
2023-03-04T23:11:08.926Z,686.15
2023-03-04T23:13:36.298Z,695.85
2023-03-04T23:16:06.158Z,682.78
2023-03-04T23:18:32.782Z,682.30
2023-03-04T23:20:59.404Z,682.40
2023-03-04T23:23:26.190Z,685.53
2023-03-04T23:25:52.943Z,688.42
2023-03-04T23:28:19.702Z,686.15
2023-03-04T23:30:46.336Z,688.55
2023-03-04T23:33:13.007Z,688.53
2023-03-04T23:35:39.687Z,689.80
2023-03-04T23:38:06.363Z,686.10
2023-03-04T23:40:33.024Z,691.78
2023-03-04T23:42:59.665Z,698.10
2023-03-04T23:45:26.383Z,690.50
2023-03-04T23:47:53.068Z,692.17
2023-03-04T23:50:19.986Z,690.47
2023-03-04T23:52:46.816Z,702.07
2023-03-04T23:55:16.652Z,694.97
2023-03-04T23:57:43.983Z,691.60
